createdAt,value
2019-05-13T00:01:16.457Z,20.85
2019-05-13T00:03:47.838Z,19.55
2019-05-13T00:06:20.267Z,21.10
2019-05-13T00:08:54.170Z,19.73
2019-05-13T00:11:24.969Z,20.00
2019-05-13T00:13:57.651Z,20.85
2019-05-13T00:16:29.306Z,20.30
2019-05-13T00:19:05.956Z,19.12
2019-05-13T00:21:40.346Z,19.02
2019-05-13T00:24:18.616Z,19.40
2019-05-13T00:26:55.071Z,18.85
2019-05-13T00:29:26.294Z,18.47
2019-05-13T00:32:01.228Z,18.60
2019-05-13T00:34:35.971Z,17.75
2019-05-13T00:37:11.639Z,18.82
2019-05-13T00:39:44.317Z,16.90
2019-05-13T00:42:17.197Z,18.15
2019-05-13T00:44:53.197Z,17.15
2019-05-13T00:47:25.310Z,22.50
2019-05-13T00:49:57.406Z,18.20
2019-05-13T00:52:33.946Z,18.40
2019-05-13T00:55:09.597Z,17.48
2019-05-13T00:57:45.437Z,16.52
2019-05-13T01:00:15.949Z,18.27
2019-05-13T01:02:49.620Z,18.80
2019-05-13T01:05:23.516Z,19.50
2019-05-13T01:07:58.298Z,18.25
2019-05-13T01:10:30.029Z,18.25
2019-05-13T01:13:01.044Z,17.75
2019-05-13T01:15:34.347Z,17.92
2019-05-13T01:18:05.254Z,18.52
2019-05-13T01:20:36.687Z,18.42
2019-05-13T01:23:08.480Z,18.00
2019-05-13T01:25:40.437Z,18.73
2019-05-13T01:28:13.521Z,17.80
2019-05-13T01:30:46.060Z,16.57
2019-05-13T01:33:20.502Z,17.02
2019-05-13T01:35:55.868Z,17.42
2019-05-13T01:38:27.744Z,18.35
2019-05-13T01:41:04.406Z,17.07
2019-05-13T01:43:44.148Z,17.70
2019-05-13T01:46:15.917Z,16.93
2019-05-13T01:48:47.801Z,17.87
2019-05-13T01:51:20.096Z,20.20
2019-05-13T01:53:53.410Z,17.30
2019-05-13T01:56:27.960Z,17.55
2019-05-13T01:58:59.999Z,16.95
2019-05-13T02:01:33.472Z,16.87
2019-05-13T02:04:04.352Z,16.50
2019-05-13T02:06:36.496Z,17.42
2019-05-13T02:09:09.438Z,17.98
2019-05-13T02:11:44.469Z,16.45
2019-05-13T02:14:15.040Z,15.53
2019-05-13T02:16:46.777Z,14.45
2019-05-13T02:19:18.531Z,13.60
2019-05-13T02:22:03.690Z,15.00
2019-05-13T02:24:26.180Z,16.02
2019-05-13T02:26:58.396Z,14.75
2019-05-13T02:29:30.518Z,14.38
2019-05-13T02:32:03.810Z,13.15
2019-05-13T02:34:47.079Z,13.45
2019-05-13T02:37:22.883Z,12.80
2019-05-13T02:39:54.508Z,12.30
2019-05-13T02:42:26.086Z,13.43
2019-05-13T02:45:03.686Z,13.25
2019-05-13T02:47:35.179Z,12.05
2019-05-13T02:50:12.230Z,12.10
2019-05-13T02:52:44.478Z,13.03
2019-05-13T02:55:15.367Z,11.45
2019-05-13T02:57:47.112Z,11.73
2019-05-13T03:00:19.302Z,11.35
2019-05-13T03:02:52.403Z,11.68
2019-05-13T03:05:28.332Z,11.57
2019-05-13T03:08:03.034Z,11.83
2019-05-13T03:10:33.272Z,12.40
2019-05-13T03:13:05.010Z,12.15
2019-05-13T03:15:38.700Z,11.25
2019-05-13T03:18:15.943Z,12.58
2019-05-13T03:20:55.565Z,11.90
2019-05-13T03:23:27.944Z,9.90
2019-05-13T03:26:02.805Z,10.18
2019-05-13T03:28:33.836Z,10.28
2019-05-13T03:31:07.506Z,10.63
2019-05-13T03:33:47.541Z,10.58
2019-05-13T03:36:26.099Z,9.08
2019-05-13T03:39:05.715Z,9.08
2019-05-13T03:41:26.920Z,9.13
2019-05-13T03:44:02.476Z,10.18
2019-05-13T03:46:37.417Z,10.15
2019-05-13T03:49:13.295Z,9.38
2019-05-13T03:51:42.979Z,9.55
2019-05-13T03:54:14.654Z,9.33
2019-05-13T03:56:53.058Z,9.78
2019-05-13T03:59:25.559Z,10.05
2019-05-13T04:01:57.467Z,9.68
2019-05-13T04:04:32.177Z,10.90
2019-05-13T04:07:23.775Z,8.70
2019-05-13T04:09:57.409Z,8.78
2019-05-13T04:12:35.183Z,8.95
2019-05-13T04:15:04.078Z,9.13
2019-05-13T04:17:44.057Z,8.78
2019-05-13T04:20:12.605Z,8.95
2019-05-13T04:22:52.696Z,8.33
2019-05-13T04:25:23.500Z,7.55
2019-05-13T04:28:03.276Z,7.37
2019-05-13T04:30:35.345Z,7.40
2019-05-13T04:33:09.137Z,8.15
2019-05-13T04:35:52.057Z,8.38
2019-05-13T04:38:18.554Z,8.95
2019-05-13T04:41:11.154Z,8.93
2019-05-13T04:43:31.646Z,8.70
2019-05-13T04:46:04.598Z,8.48
2019-05-13T04:48:43.668Z,8.50
2019-05-13T04:51:18.025Z,8.20
2019-05-13T04:53:56.910Z,8.50
2019-05-13T04:56:27.494Z,8.68
2019-05-13T04:59:02.763Z,8.70
2019-05-13T05:01:40.311Z,8.50
2019-05-13T05:04:11.366Z,8.05
2019-05-13T05:06:45.280Z,7.92
2019-05-13T05:09:22.301Z,8.18
2019-05-13T05:11:54.717Z,9.45
2019-05-13T05:14:28.347Z,8.98
2019-05-13T05:17:02.884Z,9.10
2019-05-13T05:19:35.694Z,9.20
2019-05-13T05:22:13.144Z,7.85
2019-05-13T05:24:44.667Z,8.85
2019-05-13T05:27:18.527Z,9.53
2019-05-13T05:29:51.625Z,8.48
2019-05-13T05:32:25.096Z,8.88
2019-05-13T05:34:58.236Z,8.90
2019-05-13T05:37:32.224Z,8.95
2019-05-13T05:40:12.349Z,8.48
2019-05-13T05:42:46.324Z,8.90
2019-05-13T05:45:21.981Z,7.75
2019-05-13T05:47:56.025Z,8.23
2019-05-13T05:50:31.814Z,8.10
2019-05-13T05:53:03.778Z,8.33
2019-05-13T05:55:41.071Z,8.50
2019-05-13T05:58:12.129Z,7.78
2019-05-13T06:00:44.445Z,7.55
2019-05-13T06:03:16.181Z,7.58
2019-05-13T06:05:48.168Z,7.33
2019-05-13T06:08:22.243Z,6.62
2019-05-13T06:10:54.263Z,8.93
2019-05-13T06:13:26.524Z,8.50
2019-05-13T06:15:58.634Z,9.88
2019-05-13T06:18:32.627Z,13.13
2019-05-13T06:21:04.359Z,9.40
2019-05-13T06:23:36.380Z,9.88
2019-05-13T06:26:08.382Z,9.63
2019-05-13T06:28:41.434Z,9.60
2019-05-13T06:31:13.344Z,9.83
2019-05-13T06:33:45.007Z,10.55
2019-05-13T06:36:16.955Z,9.45
2019-05-13T06:38:53.180Z,9.40
2019-05-13T06:41:25.044Z,9.88
2019-05-13T06:43:57.730Z,9.45
2019-05-13T06:46:29.023Z,10.25
2019-05-13T06:49:02.684Z,11.38
2019-05-13T06:51:33.681Z,10.72
2019-05-13T06:54:05.894Z,10.80
2019-05-13T06:56:37.707Z,11.22
2019-05-13T06:59:11.707Z,11.38
2019-05-13T07:01:42.559Z,11.35
2019-05-13T07:04:14.597Z,11.50
2019-05-13T07:06:46.096Z,11.55
2019-05-13T07:09:17.440Z,12.03
2019-05-13T07:11:51.662Z,10.50
2019-05-13T07:14:22.291Z,10.78
2019-05-13T07:16:53.962Z,9.95
2019-05-13T07:19:26.165Z,13.90
2019-05-13T07:21:58.379Z,12.20
2019-05-13T07:24:32.228Z,25.82
2019-05-13T07:27:06.499Z,11.10
2019-05-13T07:29:38.158Z,10.18
2019-05-13T07:32:11.839Z,12.75
2019-05-13T07:34:43.802Z,11.68
2019-05-13T07:37:15.960Z,9.73
2019-05-13T07:39:47.797Z,10.08
2019-05-13T07:42:22.028Z,11.90
2019-05-13T07:44:53.056Z,12.58
2019-05-13T07:47:25.158Z,10.53
2019-05-13T07:49:57.246Z,10.43
2019-05-13T07:52:31.748Z,11.10
2019-05-13T07:55:02.463Z,11.00
2019-05-13T07:57:33.692Z,9.70
2019-05-13T08:00:06.149Z,9.55
2019-05-13T08:02:38.341Z,8.38
2019-05-13T08:05:13.651Z,7.62
2019-05-13T08:07:46.671Z,7.65
2019-05-13T08:10:21.946Z,7.03
2019-05-13T08:12:54.869Z,6.28
2019-05-13T08:15:26.197Z,6.00
2019-05-13T08:17:57.788Z,6.60
2019-05-13T08:20:29.257Z,6.42
2019-05-13T08:23:02.721Z,6.03
2019-05-13T08:25:34.440Z,6.53
2019-05-13T08:28:06.459Z,6.22
2019-05-13T08:30:38.399Z,6.35
2019-05-13T08:33:12.500Z,6.75
2019-05-13T08:35:47.235Z,6.60
2019-05-13T08:38:18.188Z,7.85
2019-05-13T08:40:51.232Z,7.65
2019-05-13T08:43:23.275Z,7.62
2019-05-13T08:45:55.766Z,7.62
2019-05-13T08:48:32.401Z,8.53
2019-05-13T08:51:03.985Z,8.95
2019-05-13T08:53:35.981Z,7.53
2019-05-13T08:56:08.011Z,7.75
2019-05-13T08:58:41.246Z,7.92
2019-05-13T09:01:13.423Z,7.53
2019-05-13T09:03:45.488Z,7.83
2019-05-13T09:06:17.503Z,8.78
2019-05-13T09:08:53.596Z,8.40
2019-05-13T09:11:22.470Z,8.30
2019-05-13T09:13:53.832Z,7.92
2019-05-13T09:16:25.741Z,7.40
2019-05-13T09:18:57.690Z,7.95
2019-05-13T09:21:31.648Z,7.90
2019-05-13T09:24:02.528Z,8.55
2019-05-13T09:26:34.436Z,8.10
2019-05-13T09:29:07.246Z,8.05
2019-05-13T09:31:41.381Z,7.87
2019-05-13T09:34:12.385Z,8.05
2019-05-13T09:36:44.017Z,7.33
2019-05-13T09:39:15.870Z,8.68
2019-05-13T09:41:47.790Z,8.33
2019-05-13T09:44:21.813Z,7.28
2019-05-13T09:46:54.131Z,7.58
2019-05-13T09:49:25.760Z,7.85
2019-05-13T09:51:57.366Z,8.03
2019-05-13T09:54:32.235Z,8.03
2019-05-13T09:57:02.444Z,7.90
2019-05-13T09:59:34.391Z,7.25
2019-05-13T10:02:07.558Z,7.95
2019-05-13T10:04:43.172Z,8.10
2019-05-13T10:07:12.966Z,8.03
2019-05-13T10:09:48.222Z,7.90
2019-05-13T10:12:18.072Z,8.13
2019-05-13T10:14:49.641Z,8.63
2019-05-13T10:17:22.072Z,7.87
2019-05-13T10:19:54.378Z,8.98
2019-05-13T10:22:26.635Z,8.60
2019-05-13T10:24:58.923Z,8.48
2019-05-13T10:27:31.886Z,8.68
2019-05-13T10:30:03.915Z,8.55
2019-05-13T10:32:35.782Z,8.88
2019-05-13T10:35:09.752Z,9.03
2019-05-13T10:37:42.987Z,10.90
2019-05-13T10:40:16.842Z,11.35
2019-05-13T10:42:48.766Z,10.88
2019-05-13T10:45:22.303Z,11.15
2019-05-13T10:47:52.877Z,11.25
2019-05-13T10:50:30.046Z,11.83
2019-05-13T10:53:06.502Z,12.25
2019-05-13T10:55:38.578Z,12.37
2019-05-13T10:58:12.277Z,11.80
2019-05-13T11:00:46.673Z,12.45
2019-05-13T11:03:22.720Z,12.78
2019-05-13T11:05:53.192Z,13.32
2019-05-13T11:08:25.975Z,12.45
2019-05-13T11:10:57.747Z,11.90
2019-05-13T11:13:49.656Z,13.62
2019-05-13T11:16:03.469Z,12.90
2019-05-13T11:18:35.406Z,13.75
2019-05-13T11:21:08.313Z,13.90
2019-05-13T11:23:42.462Z,13.40
2019-05-13T11:26:13.277Z,14.53
2019-05-13T11:28:45.310Z,12.55
2019-05-13T11:31:17.208Z,13.58
2019-05-13T11:33:51.791Z,14.63
2019-05-13T11:36:23.706Z,15.10
2019-05-13T11:38:55.896Z,13.83
2019-05-13T11:41:27.664Z,13.88
2019-05-13T11:44:12.016Z,14.45
2019-05-13T11:46:33.214Z,14.65
2019-05-13T11:49:05.765Z,14.63
2019-05-13T11:51:37.346Z,14.35
2019-05-13T11:54:13.541Z,14.47
2019-05-13T11:56:49.216Z,14.68
2019-05-13T11:59:16.744Z,13.70
2019-05-13T12:01:47.961Z,14.20
2019-05-13T12:04:23.280Z,13.98
2019-05-13T12:06:54.798Z,14.63
2019-05-13T12:09:26.920Z,14.13
2019-05-13T12:12:02.845Z,15.55
2019-05-13T12:14:44.297Z,14.98
2019-05-13T12:17:07.122Z,14.85
2019-05-13T12:19:42.323Z,15.03
2019-05-13T12:25:02.201Z,13.80
2019-05-13T12:27:34.322Z,16.37
2019-05-13T12:30:15.235Z,16.60
2019-05-13T12:32:47.132Z,18.30
2019-05-13T12:35:22.823Z,16.65
2019-05-13T12:37:57.956Z,14.98
2019-05-13T12:40:28.522Z,15.38
2019-05-13T12:43:02.087Z,14.45
2019-05-13T12:45:34.407Z,14.00
2019-05-13T12:48:07.676Z,14.35
2019-05-13T12:50:42.503Z,13.80
2019-05-13T12:53:17.387Z,12.88
2019-05-13T12:55:55.706Z,12.78
2019-05-13T12:58:27.382Z,13.65
2019-05-13T13:00:57.759Z,12.98
2019-05-13T13:03:32.544Z,12.07
2019-05-13T13:06:25.922Z,11.97
2019-05-13T13:08:48.667Z,11.80
2019-05-13T13:11:22.807Z,11.60
2019-05-13T13:14:00.124Z,11.45
2019-05-13T13:16:34.351Z,11.75
2019-05-13T13:19:03.709Z,11.33
2019-05-13T13:21:39.757Z,11.78
2019-05-13T13:24:12.289Z,13.03
2019-05-13T13:26:44.597Z,12.25
2019-05-13T13:29:17.526Z,12.20
2019-05-13T13:31:55.486Z,12.68
2019-05-13T13:34:26.020Z,12.18
2019-05-13T13:37:04.956Z,12.60
2019-05-13T13:42:12.872Z,12.23
2019-05-13T13:44:46.597Z,12.63
2019-05-13T13:47:16.992Z,12.35
2019-05-13T13:49:48.540Z,13.93
2019-05-13T13:52:22.592Z,14.15
2019-05-13T13:55:02.064Z,14.55
2019-05-13T13:57:25.969Z,14.73
2019-05-13T14:00:31.788Z,13.70
2019-05-13T14:02:36.882Z,14.40
2019-05-13T14:05:08.732Z,14.10
2019-05-13T14:07:43.801Z,13.80
2019-05-13T14:10:23.833Z,13.43
2019-05-13T14:13:01.185Z,12.25
2019-05-13T14:15:34.325Z,12.73
2019-05-13T14:18:06.441Z,12.68
2019-05-13T14:20:42.635Z,12.40
2019-05-13T14:23:31.177Z,13.90
2019-05-13T14:25:59.873Z,15.23
2019-05-13T14:28:32.687Z,15.75
2019-05-13T14:31:06.382Z,9.85
2019-05-13T14:33:42.286Z,4.08
2019-05-13T14:36:17.694Z,3.45
2019-05-13T14:38:46.546Z,3.90
2019-05-13T14:41:25.823Z,4.00
2019-05-13T14:44:03.597Z,4.17
2019-05-13T14:46:46.379Z,4.25
2019-05-13T14:49:12.355Z,2.83
2019-05-13T14:51:45.126Z,2.42
2019-05-13T14:54:20.597Z,2.45
2019-05-13T14:56:55.855Z,2.80
2019-05-13T14:59:26.612Z,2.95
2019-05-13T15:02:01.160Z,2.95
2019-05-13T15:04:32.502Z,2.60
2019-05-13T15:07:05.685Z,3.67
2019-05-13T15:09:37.959Z,3.75
2019-05-13T15:12:14.818Z,3.25
2019-05-13T15:17:17.755Z,3.98
2019-05-13T15:19:49.468Z,4.03
2019-05-13T15:22:22.740Z,3.75
2019-05-13T15:24:54.787Z,4.53
2019-05-13T15:27:31.729Z,3.90
2019-05-13T15:30:16.869Z,3.90
2019-05-13T15:32:37.597Z,4.00
2019-05-13T15:35:13.255Z,3.65
2019-05-13T15:37:52.289Z,3.30
2019-05-13T15:40:23.137Z,3.08
2019-05-13T15:42:54.705Z,2.60
2019-05-13T15:45:26.121Z,2.95
2019-05-13T15:48:02.197Z,2.80
2019-05-13T15:50:31.879Z,2.52
2019-05-13T15:53:03.705Z,2.00
2019-05-13T15:55:35.702Z,2.15
2019-05-13T15:58:07.938Z,2.33
2019-05-13T16:00:43.771Z,2.10
2019-05-13T16:03:14.385Z,1.98
2019-05-13T16:05:51.590Z,2.25
2019-05-13T16:08:23.647Z,1.70
2019-05-13T16:10:55.668Z,1.62
2019-05-13T16:13:28.735Z,1.72
2019-05-13T16:16:03.269Z,1.90
2019-05-13T16:18:36.289Z,1.42
2019-05-13T16:21:09.258Z,1.52
2019-05-13T16:23:45.698Z,1.87
2019-05-13T16:26:17.711Z,1.65
2019-05-13T16:28:51.953Z,1.85
2019-05-13T16:31:22.901Z,1.75
2019-05-13T16:33:55.471Z,1.85
2019-05-13T16:36:26.945Z,1.75
2019-05-13T16:39:01.496Z,2.00
2019-05-13T16:41:33.633Z,1.87
2019-05-13T16:44:04.940Z,1.80
2019-05-13T16:46:42.336Z,2.12
2019-05-13T16:49:12.391Z,2.75
2019-05-13T16:51:44.423Z,1.98
2019-05-13T16:54:16.661Z,2.30
2019-05-13T16:56:49.068Z,2.05
2019-05-13T16:59:21.174Z,1.90
2019-05-13T17:02:01.886Z,2.02
2019-05-13T17:04:32.733Z,1.87
2019-05-13T17:07:04.099Z,2.00
2019-05-13T17:09:35.817Z,2.05
2019-05-13T17:12:08.055Z,2.10
2019-05-13T17:14:41.571Z,2.00
2019-05-13T17:17:13.646Z,1.67
2019-05-13T17:19:45.538Z,2.58
2019-05-13T17:22:17.629Z,1.98
2019-05-13T17:24:51.712Z,2.30
2019-05-13T17:27:22.878Z,2.20
2019-05-13T17:29:54.997Z,1.95
2019-05-13T17:32:27.088Z,2.15
2019-05-13T17:35:16.168Z,2.02
2019-05-13T17:37:47.030Z,2.33
2019-05-13T17:40:22.275Z,2.25
2019-05-13T17:42:54.008Z,1.85
2019-05-13T17:45:25.552Z,2.35
2019-05-13T17:48:01.060Z,2.22
2019-05-13T17:50:32.612Z,2.42
2019-05-13T17:53:04.465Z,2.40
2019-05-13T17:55:36.570Z,2.30
2019-05-13T17:58:08.012Z,2.50
2019-05-13T18:00:41.517Z,2.58
2019-05-13T18:03:13.577Z,2.10
2019-05-13T18:05:51.331Z,2.80
2019-05-13T18:08:22.775Z,2.50
2019-05-13T18:10:54.991Z,2.50
2019-05-13T18:13:27.339Z,2.50
2019-05-13T18:16:02.032Z,2.42
2019-05-13T18:18:43.051Z,2.70
2019-05-13T18:21:08.720Z,2.50
2019-05-13T18:23:42.732Z,2.50
2019-05-13T18:26:18.046Z,3.00
2019-05-13T18:28:58.910Z,2.85
2019-05-13T18:31:30.536Z,3.10
2019-05-13T18:34:02.520Z,3.05
2019-05-13T18:36:34.317Z,3.75
2019-05-13T18:39:06.437Z,3.30
2019-05-13T18:41:41.287Z,3.75
2019-05-13T18:44:19.839Z,3.85
2019-05-13T18:46:53.804Z,3.58
2019-05-13T18:49:25.611Z,3.90
2019-05-13T18:51:57.512Z,3.50
2019-05-13T18:54:32.277Z,3.65
2019-05-13T18:57:04.366Z,3.72
2019-05-13T18:59:36.562Z,3.47
2019-05-13T19:02:12.230Z,3.42
2019-05-13T19:04:44.383Z,3.42
2019-05-13T19:07:17.392Z,3.37
2019-05-13T19:09:49.315Z,3.60
2019-05-13T19:12:58.599Z,3.98
2019-05-13T19:14:54.498Z,3.83
2019-05-13T19:17:26.172Z,4.00
2019-05-13T19:19:57.703Z,3.30
2019-05-13T19:22:29.045Z,4.03
2019-05-13T19:25:03.502Z,4.15
2019-05-13T19:27:35.473Z,3.50
2019-05-13T19:30:08.178Z,3.40
2019-05-13T19:32:41.410Z,3.60
2019-05-13T19:35:13.553Z,3.55
2019-05-13T19:37:46.931Z,3.58
2019-05-13T19:40:19.123Z,4.37
2019-05-13T19:42:51.128Z,3.65
2019-05-13T19:45:24.143Z,3.87
2019-05-13T19:47:55.879Z,3.90
2019-05-13T19:50:27.875Z,3.83
2019-05-13T19:53:01.327Z,4.30
2019-05-13T19:55:33.937Z,4.00
2019-05-13T19:58:06.121Z,3.67
2019-05-13T20:00:38.161Z,3.62
2019-05-13T20:03:11.699Z,3.55
2019-05-13T20:05:43.214Z,3.60
2019-05-13T20:08:15.197Z,3.70
2019-05-13T20:10:46.841Z,3.92
2019-05-13T20:13:18.813Z,4.12
2019-05-13T20:15:51.829Z,4.20
2019-05-13T20:18:26.359Z,4.17
2019-05-13T20:20:56.780Z,4.33
2019-05-13T20:23:28.684Z,4.47
2019-05-13T20:26:00.608Z,4.60
2019-05-13T20:28:32.209Z,4.35
2019-05-13T20:31:04.335Z,3.98
2019-05-13T20:33:39.600Z,4.80
2019-05-13T20:36:08.943Z,4.00
2019-05-13T20:38:40.775Z,4.33
2019-05-13T20:41:12.728Z,4.45
2019-05-13T20:43:44.854Z,4.40
2019-05-13T20:46:16.901Z,4.42
2019-05-13T20:48:51.782Z,4.42
2019-05-13T20:51:22.492Z,3.98
2019-05-13T20:53:54.450Z,4.42
2019-05-13T20:56:26.078Z,4.30
2019-05-13T20:58:57.985Z,4.28
2019-05-13T21:01:29.949Z,4.10
2019-05-13T21:04:01.849Z,4.22
2019-05-13T21:06:34.066Z,4.50
2019-05-13T21:09:06.418Z,4.47
2019-05-13T21:11:41.579Z,4.40
2019-05-13T21:14:12.388Z,4.05
2019-05-13T21:16:44.574Z,4.47
2019-05-13T21:19:16.604Z,5.00
2019-05-13T21:21:50.962Z,4.50
2019-05-13T21:24:22.063Z,4.20
2019-05-13T21:26:53.808Z,4.97
2019-05-13T21:29:26.148Z,4.65
2019-05-13T21:31:58.001Z,4.00
2019-05-13T21:34:31.605Z,4.28
2019-05-13T21:37:03.278Z,4.78
2019-05-13T21:39:35.587Z,4.70
2019-05-13T21:42:07.236Z,4.62
2019-05-13T21:44:39.347Z,4.80
2019-05-13T21:47:11.544Z,4.80
2019-05-13T21:49:43.537Z,6.42
2019-05-13T21:52:15.695Z,8.20
2019-05-13T21:54:46.956Z,7.20
2019-05-13T21:57:18.590Z,8.38
2019-05-13T21:59:51.605Z,8.95
2019-05-13T22:02:23.392Z,7.33
2019-05-13T22:04:55.331Z,6.40
2019-05-13T22:07:27.526Z,6.05
2019-05-13T22:10:01.851Z,6.20
2019-05-13T22:12:32.918Z,5.70
2019-05-13T22:15:04.906Z,5.37
2019-05-13T22:17:36.932Z,5.22
2019-05-13T22:20:21.172Z,5.83
2019-05-13T22:22:52.547Z,5.33
2019-05-13T22:25:24.060Z,5.25
2019-05-13T22:27:55.526Z,5.47
2019-05-13T22:30:27.328Z,5.83
2019-05-13T22:33:01.671Z,5.50
2019-05-13T22:35:32.475Z,5.55
2019-05-13T22:38:04.105Z,5.83
2019-05-13T22:40:36.065Z,5.58
2019-05-13T22:43:08.069Z,5.45
2019-05-13T22:45:41.657Z,5.25
2019-05-13T22:48:14.946Z,5.30
2019-05-13T22:50:46.624Z,6.17
2019-05-13T22:53:20.976Z,5.78
2019-05-13T22:55:52.096Z,5.65
2019-05-13T22:58:24.014Z,6.28
2019-05-13T23:00:56.602Z,5.55
2019-05-13T23:03:28.568Z,6.75
2019-05-13T23:06:01.600Z,6.45
2019-05-13T23:08:33.455Z,5.95
2019-05-13T23:11:04.848Z,6.00
2019-05-13T23:13:36.047Z,6.22
2019-05-13T23:16:07.558Z,5.55
2019-05-13T23:18:39.209Z,5.72
2019-05-13T23:21:11.483Z,6.47
2019-05-13T23:23:43.264Z,7.05
2019-05-13T23:26:14.479Z,6.87
2019-05-13T23:28:45.606Z,7.70
2019-05-13T23:31:17.195Z,8.20
2019-05-13T23:33:49.288Z,6.45
2019-05-13T23:36:21.409Z,7.35
2019-05-13T23:38:53.661Z,6.72
2019-05-13T23:41:25.048Z,6.47
2019-05-13T23:43:57.289Z,5.97
2019-05-13T23:46:31.350Z,5.83
2019-05-13T23:49:02.688Z,7.70
2019-05-13T23:51:34.701Z,7.10
2019-05-13T23:54:06.386Z,8.10
2019-05-13T23:56:38.565Z,8.75
2019-05-13T23:59:11.346Z,9.73
